Aérodrome :
LOGIN :

S'inscrire | Disclaimer

   EN    FR    IT 

 










Légende :    VFR   VFR Marginal   IFR   IFR Intensif   IFR Très Intensif
Visi : 
Plafond : 
>= 8 km
>= 3000ft
5 à 8 km
1000 à 3000 ft
1500m à 5 km
500 à 1000 ft
800 à 1500m
200 à 500 ft
< 800m
< 200 ft
Symboles :   Orages  Brouillard  Fortes neiges  Fortes précipitations  Vent > 20 kt
SIGMETs :   Divers  Orages  Givrage  Turbulence  Onde Orograph.  Cendres Volcan.






- Altitude de l'aérodrome : 226 ft
- Code IATA : BEX


EGUB - RAF Benson

DERNIER METAR :
  • 211350Z 09007KT 7000 HZ OVC007 05/03 Q1001 NOSIG RMK GRN GRN

METARs EXPIRÉS :
  • 211322Z 07009KT 7000 HZ OVC007 05/03 Q1001 NOSIG RMK GRN GRN
  • 211250Z 08010KT 7000 HZ OVC007 04/03 Q1001 NOSIG RMK GRN GRN
  • 211235Z 09010KT 6000 HZ OVC007 04/03 Q1002 NOSIG RMK GRN GRN
  • 211150Z 10009KT 7000 HZ OVC008 04/02 Q1002 NOSIG RMK GRN GRN
  • 211123Z 12008KT 9999 OVC009 04/02 Q1003 NOSIG RMK GRN GRN
  • 211050Z 10010KT 9999 BKN008 BKN025 04/02 Q1003 NOSIG RMK GRN GRN

TAF AMD TAF EGUB
Valide du 21 à 12h jusqu'au 21 à 21h UTC


211215Z 2112/2121 09009KT 5000 HZ BKN008
PROB30
TEMPO 2112/2118 4000 BR BKN005
TEMPO 2118/2121 3000 -RADZ BKN005
ATIS : +44 1491-837766 (x7524)



MET'MAP, la Météo Aéronautique d'un coup d'oeil ! - Copyright ORBIFLY Décembre 2007 - Disclaimer

ORBIFLY MET'MAP TEAM :

Programmation & Développement : Alexandra Zaïnal
Conception & Développement : Baudouin d'Aumeries
Co-Programmation & Développement : Marc-Olivier Méhu
Soutien technique & logistique : Manuel Goepfert

Contact : metmap@orbifly.com




SOURCES & CREDITS :

   NOAA